sensor_id;sensor_type;location;lat;lon;timestamp;pressure;altitude;pressure_sealevel;temperature;humidity
11448;BME280;43755;49.736;8.734;2023-01-27T00:01:14;98169.03;;;-1.56;100.00
11448;BME280;43755;49.736;8.734;2023-01-27T00:03:15;98169.94;;;-1.54;100.00
11448;BME280;43755;49.736;8.734;2023-01-27T00:05:18;98169.97;;;-1.50;100.00
11448;BME280;43755;49.736;8.734;2023-01-27T00:07:19;98173.41;;;-1.54;100.00
11448;BME280;43755;49.736;8.734;2023-01-27T00:09:22;98163.06;;;-1.49;100.00
11448;BME280;43755;49.736;8.734;2023-01-27T00:11:23;98169.13;;;-1.44;100.00
11448;BME280;43755;49.736;8.734;2023-01-27T00:13:42;98163.97;;;-1.43;100.00
11448;BME280;43755;49.736;8.734;2023-01-27T00:15:44;98170.00;;;-1.41;100.00
11448;BME280;43755;49.736;8.734;2023-01-27T00:17:45;98165.75;;;-1.33;100.00
11448;BME280;43755;49.736;8.734;2023-01-27T00:19:46;98164.88;;;-1.35;100.00
11448;BME280;43755;49.736;8.734;2023-01-27T00:21:48;98157.94;;;-1.42;100.00
11448;BME280;43755;49.736;8.734;2023-01-27T00:24:10;98160.47;;;-1.49;100.00
11448;BME280;43755;49.736;8.734;2023-01-27T00:26:31;98154.41;;;-1.48;100.00
11448;BME280;43755;49.736;8.734;2023-01-27T00:28:32;98150.06;;;-1.51;100.00
11448;BME280;43755;49.736;8.734;2023-01-27T00:30:34;98149.22;;;-1.50;100.00
11448;BME280;43755;49.736;8.734;2023-01-27T00:32:35;98156.91;;;-1.59;100.00
11448;BME280;43755;49.736;8.734;2023-01-27T00:34:54;98158.59;;;-1.67;100.00
11448;BME280;43755;49.736;8.734;2023-01-27T00:36:56;98156.03;;;-1.66;100.00
11448;BME280;43755;49.736;8.734;2023-01-27T00:38:57;98148.25;;;-1.62;100.00
11448;BME280;43755;49.736;8.734;2023-01-27T00:40:59;98148.28;;;-1.59;100.00
11448;BME280;43755;49.736;8.734;2023-01-27T00:43:20;98148.34;;;-1.53;100.00
11448;BME280;43755;49.736;8.734;2023-01-27T00:45:21;98149.13;;;-1.62;100.00
11448;BME280;43755;49.736;8.734;2023-01-27T00:47:40;98149.97;;;-1.63;100.00
11448;BME280;43755;49.736;8.734;2023-01-27T00:49:41;98146.53;;;-1.60;100.00
11448;BME280;43755;49.736;8.734;2023-01-27T00:51:43;98146.59;;;-1.51;100.00
11448;BME280;43755;49.736;8.734;2023-01-27T00:53:45;98150.13;;;-1.42;100.00
11448;BME280;43755;49.736;8.734;2023-01-27T00:55:47;98145.00;;;-1.33;100.00
11448;BME280;43755;49.736;8.734;2023-01-27T00:57:48;98145.06;;;-1.25;100.00
11448;BME280;43755;49.736;8.734;2023-01-27T00:59:51;98151.00;;;-1.43;100.00
11448;BME280;43755;49.736;8.734;2023-01-27T01:01:52;98151.00;;;-1.38;100.00
11448;BME280;43755;49.736;8.734;2023-01-27T01:03:54;98146.69;;;-1.38;100.00
11448;BME280;43755;49.736;8.734;2023-01-27T01:05:58;98144.94;;;-1.42;100.00
11448;BME280;43755;49.736;8.734;2023-01-27T01:07:59;98143.28;;;-1.31;100.00
11448;BME280;43755;49.736;8.734;2023-01-27T01:10:01;98151.03;;;-1.37;100.00
11448;BME280;43755;49.736;8.734;2023-01-27T01:12:02;98159.66;;;-1.38;100.00
11448;BME280;43755;49.736;8.734;2023-01-27T01:14:04;98152.69;;;-1.48;100.00
11448;BME280;43755;49.736;8.734;2023-01-27T01:16:09;98152.66;;;-1.49;100.00
11448;BME280;43755;49.736;8.734;2023-01-27T01:18:11;98150.09;;;-1.45;100.00
11448;BME280;43755;49.736;8.734;2023-01-27T01:20:13;98157.97;;;-1.36;100.00
11448;BME280;43755;49.736;8.734;2023-01-27T01:22:15;98156.97;;;-1.51;100.00
11448;BME280;43755;49.736;8.734;2023-01-27T01:24:16;98161.28;;;-1.55;100.00
11448;BME280;43755;49.736;8.734;2023-01-27T01:26:18;98156.06;;;-1.56;100.00
11448;BME280;43755;49.736;8.734;2023-01-27T01:28:20;98157.78;;;-1.57;100.00
11448;BME280;43755;49.736;8.734;2023-01-27T01:30:21;98158.63;;;-1.62;100.00
11448;BME280;43755;49.736;8.734;2023-01-27T01:32:26;98155.25;;;-1.51;100.00
11448;BME280;43755;49.736;8.734;2023-01-27T01:34:28;98152.66;;;-1.54;100.00
11448;BME280;43755;49.736;8.734;2023-01-27T01:36:29;98156.16;;;-1.44;100.00
11448;BME280;43755;49.736;8.734;2023-01-27T01:38:30;98159.59;;;-1.48;100.00
11448;BME280;43755;49.736;8.734;2023-01-27T01:40:32;98163.94;;;-1.44;100.00
11448;BME280;43755;49.736;8.734;2023-01-27T01:42:58;98161.28;;;-1.52;100.00
11448;BME280;43755;49.736;8.734;2023-01-27T01:47:37;98165.56;;;-1.60;100.00
11448;BME280;43755;49.736;8.734;2023-01-27T01:49:40;98165.56;;;-1.60;100.00
11448;BME280;43755;49.736;8.734;2023-01-27T01:51:43;98161.25;;;-1.56;100.00
11448;BME280;43755;49.736;8.734;2023-01-27T01:53:49;98160.53;;;-1.39;100.00
11448;BME280;43755;49.736;8.734;2023-01-27T01:55:52;98164.81;;;-1.45;100.00
11448;BME280;43755;49.736;8.734;2023-01-27T01:57:54;98155.34;;;-1.42;100.00
11448;BME280;43755;49.736;8.734;2023-01-27T01:59:58;98155.31;;;-1.43;100.00
11448;BME280;43755;49.736;8.734;2023-01-27T02:02:02;98151.03;;;-1.35;100.00
11448;BME280;43755;49.736;8.734;2023-01-27T02:04:11;98152.78;;;-1.33;100.00
11448;BME280;43755;49.736;8.734;2023-01-27T02:06:15;98147.59;;;-1.36;100.00
11448;BME280;43755;49.736;8.734;2023-01-27T02:08:20;98153.66;;;-1.32;100.00
11448;BME280;43755;49.736;8.734;2023-01-27T02:10:23;98153.63;;;-1.34;100.00
11448;BME280;43755;49.736;8.734;2023-01-27T02:12:24;98149.22;;;-1.45;100.00
11448;BME280;43755;49.736;8.734;2023-01-27T02:14:26;98145.75;;;-1.49;100.00
11448;BME280;43755;49.736;8.734;2023-01-27T02:16:28;98139.69;;;-1.54;100.00
11448;BME280;43755;49.736;8.734;2023-01-27T02:18:30;98144.88;;;-1.54;100.00
11448;BME280;43755;49.736;8.734;2023-01-27T02:20:38;98136.22;;;-1.51;100.00
11448;BME280;43755;49.736;8.734;2023-01-27T02:22:46;98138.94;;;-1.36;100.00
11448;BME280;43755;49.736;8.734;2023-01-27T02:24:57;98131.16;;;-1.33;100.00
11448;BME280;43755;49.736;8.734;2023-01-27T02:27:02;98127.69;;;-1.37;100.00
11448;BME280;43755;49.736;8.734;2023-01-27T02:29:06;98139.81;;;-1.36;100.00
11448;BME280;43755;49.736;8.734;2023-01-27T02:31:07;98140.63;;;-1.40;100.00
11448;BME280;43755;49.736;8.734;2023-01-27T02:33:10;98131.97;;;-1.43;100.00
11448;BME280;43755;49.736;8.734;2023-01-27T02:35:14;98141.47;;;-1.42;100.00
11448;BME280;43755;49.736;8.734;2023-01-27T02:37:18;98131.09;;;-1.41;100.00
11448;BME280;43755;49.736;8.734;2023-01-27T02:39:22;98138.88;;;-1.41;100.00
11448;BME280;43755;49.736;8.734;2023-01-27T02:41:28;98136.34;;;-1.32;100.00
11448;BME280;43755;49.736;8.734;2023-01-27T02:43:33;98143.31;;;-1.23;100.00
11448;BME280;43755;49.736;8.734;2023-01-27T02:45:35;98144.19;;;-1.24;100.00
11448;BME280;43755;49.736;8.734;2023-01-27T02:47:36;98139.91;;;-1.16;100.00
11448;BME280;43755;49.736;8.734;2023-01-27T02:49:37;98145.88;;;-1.32;100.00
11448;BME280;43755;49.736;8.734;2023-01-27T02:51:39;98149.38;;;-1.26;100.00
11448;BME280;43755;49.736;8.734;2023-01-27T02:53:40;98145.97;;;-1.18;100.00
11448;BME280;43755;49.736;8.734;2023-01-27T02:55:42;98148.50;;;-1.23;100.00
11448;BME280;43755;49.736;8.734;2023-01-27T02:57:43;98145.94;;;-1.17;100.00
11448;BME280;43755;49.736;8.734;2023-01-27T02:59:46;98154.59;;;-1.19;100.00
11448;BME280;43755;49.736;8.734;2023-01-27T03:01:47;98150.22;;;-1.27;100.00
11448;BME280;43755;49.736;8.734;2023-01-27T03:03:48;98151.13;;;-1.25;100.00
11448;BME280;43755;49.736;8.734;2023-01-27T03:05:50;98155.38;;;-1.33;100.00
11448;BME280;43755;49.736;8.734;2023-01-27T03:07:51;98156.19;;;-1.40;100.00
11448;BME280;43755;49.736;8.734;2023-01-27T03:09:53;98157.09;;;-1.36;100.00
11448;BME280;43755;49.736;8.734;2023-01-27T03:11:54;98161.41;;;-1.35;100.00
11448;BME280;43755;49.736;8.734;2023-01-27T03:14:13;98161.41;;;-1.34;100.00
11448;BME280;43755;49.736;8.734;2023-01-27T03:16:16;98163.13;;;-1.37;100.00
11448;BME280;43755;49.736;8.734;2023-01-27T03:18:35;98156.25;;;-1.31;100.00
11448;BME280;43755;49.736;8.734;2023-01-27T03:20:36;98163.25;;;-1.19;100.00
11448;BME280;43755;49.736;8.734;2023-01-27T03:22:37;98164.09;;;-1.21;100.00
11448;BME280;43755;49.736;8.734;2023-01-27T03:24:39;98154.59;;;-1.24;100.00
11448;BME280;43755;49.736;8.734;2023-01-27T03:26:40;98160.66;;;-1.16;100.00
11448;BME280;43755;49.736;8.734;2023-01-27T03:28:41;98162.38;;;-1.16;100.00
11448;BME280;43755;49.736;8.734;2023-01-27T03:31:05;98155.56;;;-1.01;100.00
11448;BME280;43755;49.736;8.734;2023-01-27T03:33:08;98152.91;;;-1.14;100.00
11448;BME280;43755;49.736;8.734;2023-01-27T03:35:10;98164.13;;;-1.15;100.00
11448;BME280;43755;49.736;8.734;2023-01-27T03:37:13;98156.41;;;-1.05;100.00
11448;BME280;43755;49.736;8.734;2023-01-27T03:39:32;98158.94;;;-1.15;100.00
11448;BME280;43755;49.736;8.734;2023-01-27T03:41:51;98161.53;;;-1.15;100.00
11448;BME280;43755;49.736;8.734;2023-01-27T03:44:10;98154.63;;;-1.13;100.00
11448;BME280;43755;49.736;8.734;2023-01-27T03:46:29;98163.28;;;-1.13;100.00
11448;BME280;43755;49.736;8.734;2023-01-27T03:48:33;98162.38;;;-1.16;100.00
11448;BME280;43755;49.736;8.734;2023-01-27T03:50:35;98169.31;;;-1.15;100.00
11448;BME280;43755;49.736;8.734;2023-01-27T03:52:37;98170.19;;;-1.15;100.00
11448;BME280;43755;49.736;8.734;2023-01-27T03:54:38;98169.34;;;-1.12;100.00
11448;BME280;43755;49.736;8.734;2023-01-27T03:56:40;98165.03;;;-1.09;100.00
11448;BME280;43755;49.736;8.734;2023-01-27T03:58:42;98172.78;;;-1.18;100.00
11448;BME280;43755;49.736;8.734;2023-01-27T04:00:44;98170.13;;;-1.23;100.00
11448;BME280;43755;49.736;8.734;2023-01-27T04:02:46;98170.19;;;-1.15;100.00
11448;BME280;43755;49.736;8.734;2023-01-27T04:05:08;98167.59;;;-1.15;100.00
11448;BME280;43755;49.736;8.734;2023-01-27T04:07:27;98174.47;;;-1.21;100.00
11448;BME280;43755;49.736;8.734;2023-01-27T04:09:30;98179.66;;;-1.21;100.00
11448;BME280;43755;49.736;8.734;2023-01-27T04:11:32;98176.19;;;-1.22;100.00
11448;BME280;43755;49.736;8.734;2023-01-27T04:13:51;98174.41;;;-1.29;100.00
11448;BME280;43755;49.736;8.734;2023-01-27T04:15:53;98178.78;;;-1.25;100.00
11448;BME280;43755;49.736;8.734;2023-01-27T04:17:54;98183.97;;;-1.30;100.00
11448;BME280;43755;49.736;8.734;2023-01-27T04:19:56;98183.16;;;-1.16;100.00
11448;BME280;43755;49.736;8.734;2023-01-27T04:21:59;98180.59;;;-1.13;100.00
11448;BME280;43755;49.736;8.734;2023-01-27T04:24:01;98176.25;;;-1.16;100.00
11448;BME280;43755;49.736;8.734;2023-01-27T04:26:03;98178.84;;;-1.14;100.00
11448;BME280;43755;49.736;8.734;2023-01-27T04:28:05;98182.34;;;-1.12;100.00
11448;BME280;43755;49.736;8.734;2023-01-27T04:30:08;98184.88;;;-1.17;100.00
11448;BME280;43755;49.736;8.734;2023-01-27T04:32:11;98185.78;;;-1.18;100.00
11448;BME280;43755;49.736;8.734;2023-01-27T04:34:13;98184.00;;;-1.17;100.00
11448;BME280;43755;49.736;8.734;2023-01-27T04:36:15;98186.56;;;-1.27;100.00
11448;BME280;43755;49.736;8.734;2023-01-27T04:38:18;98182.25;;;-1.23;100.00
11448;BME280;43755;49.736;8.734;2023-01-27T04:40:19;98183.19;;;-1.15;100.00
11448;BME280;43755;49.736;8.734;2023-01-27T04:42:20;98189.19;;;-1.20;100.00
11448;BME280;43755;49.736;8.734;2023-01-27T04:44:22;98190.06;;;-1.17;100.00
11448;BME280;43755;49.736;8.734;2023-01-27T04:46:24;98195.22;;;-1.23;100.00
11448;BME280;43755;49.736;8.734;2023-01-27T04:48:25;98199.63;;;-1.14;100.00
11448;BME280;43755;49.736;8.734;2023-01-27T04:50:26;98197.03;;;-1.13;100.00
11448;BME280;43755;49.736;8.734;2023-01-27T04:52:28;98198.75;;;-1.12;100.00
11448;BME280;43755;49.736;8.734;2023-01-27T04:54:31;98190.97;;;-1.10;100.00
11448;BME280;43755;49.736;8.734;2023-01-27T04:56:34;98196.22;;;-1.07;100.00
11448;BME280;43755;49.736;8.734;2023-01-27T04:58:35;98189.25;;;-1.13;100.00
11448;BME280;43755;49.736;8.734;2023-01-27T05:00:37;98197.03;;;-1.14;100.00
11448;BME280;43755;49.736;8.734;2023-01-27T05:02:38;98197.09;;;-1.02;100.00
11448;BME280;43755;49.736;8.734;2023-01-27T05:04:40;98194.44;;;-1.10;100.00
11448;BME280;43755;49.736;8.734;2023-01-27T05:06:41;98196.19;;;-1.10;100.00
11448;BME280;43755;49.736;8.734;2023-01-27T05:08:43;98190.97;;;-1.13;100.00
11448;BME280;43755;49.736;8.734;2023-01-27T05:10:46;98190.94;;;-1.19;100.00
11448;BME280;43755;49.736;8.734;2023-01-27T05:12:47;98190.09;;;-1.14;100.00
11448;BME280;43755;49.736;8.734;2023-01-27T05:14:49;98190.13;;;-1.12;100.00
11448;BME280;43755;49.736;8.734;2023-01-27T05:16:50;98181.50;;;-1.08;100.00
11448;BME280;43755;49.736;8.734;2023-01-27T05:18:52;98189.25;;;-1.11;100.00
11448;BME280;43755;49.736;8.734;2023-01-27T05:20:57;98187.56;;;-1.05;100.00
11448;BME280;43755;49.736;8.734;2023-01-27T05:22:59;98191.91;;;-1.02;100.00
11448;BME280;43755;49.736;8.734;2023-01-27T05:25:14;98198.78;;;-1.13;100.00
11448;BME280;43755;49.736;8.734;2023-01-27T05:27:17;98191.81;;;-1.17;100.00
11448;BME280;43755;49.736;8.734;2023-01-27T05:29:18;98184.09;;;-1.05;100.00
11448;BME280;43755;49.736;8.734;2023-01-27T05:31:21;98196.09;;;-1.24;100.00
11448;BME280;43755;49.736;8.734;2023-01-27T05:33:23;98194.38;;;-1.20;100.00
11448;BME280;43755;49.736;8.734;2023-01-27T05:35:24;98199.59;;;-1.16;100.00
11448;BME280;43755;49.736;8.734;2023-01-27T05:37:26;98198.72;;;-1.21;100.00
11448;BME280;43755;49.736;8.734;2023-01-27T05:39:27;98210.81;;;-1.25;100.00
11448;BME280;43755;49.736;8.734;2023-01-27T05:41:29;98210.00;;;-1.16;100.00
11448;BME280;43755;49.736;8.734;2023-01-27T05:43:36;98209.16;;;-1.10;100.00
11448;BME280;43755;49.736;8.734;2023-01-27T05:45:37;98207.50;;;-0.99;100.00
11448;BME280;43755;49.736;8.734;2023-01-27T05:47:39;98216.91;;;-1.18;100.00
11448;BME280;43755;49.736;8.734;2023-01-27T05:49:40;98217.84;;;-1.05;100.00
11448;BME280;43755;49.736;8.734;2023-01-27T05:51:41;98218.72;;;-1.06;100.00
11448;BME280;43755;49.736;8.734;2023-01-27T05:53:44;98213.50;;;-1.08;100.00
11448;BME280;43755;49.736;8.734;2023-01-27T05:55:45;98226.50;;;-1.06;100.00
11448;BME280;43755;49.736;8.734;2023-01-27T05:57:47;98223.91;;;-1.06;100.00
11448;BME280;43755;49.736;8.734;2023-01-27T05:59:49;98227.31;;;-1.18;100.00
11448;BME280;43755;49.736;8.734;2023-01-27T06:01:51;98223.00;;;-1.11;100.00
11448;BME280;43755;49.736;8.734;2023-01-27T06:03:52;98224.69;;;-1.16;100.00
11448;BME280;43755;49.736;8.734;2023-01-27T06:05:55;98223.84;;;-1.14;100.00
11448;BME280;43755;49.736;8.734;2023-01-27T06:07:57;98219.59;;;-1.07;100.00
11448;BME280;43755;49.736;8.734;2023-01-27T06:09:58;98216.94;;;-1.13;100.00
11448;BME280;43755;49.736;8.734;2023-01-27T06:11:59;98223.88;;;-1.09;100.00
11448;BME280;43755;49.736;8.734;2023-01-27T06:14:01;98224.78;;;-1.07;100.00
11448;BME280;43755;49.736;8.734;2023-01-27T06:16:05;98217.84;;;-1.05;100.00
11448;BME280;43755;49.736;8.734;2023-01-27T06:18:07;98227.31;;;-1.13;100.00
11448;BME280;43755;49.736;8.734;2023-01-27T06:20:10;98232.50;;;-1.12;100.00
11448;BME280;43755;49.736;8.734;2023-01-27T06:22:11;98221.28;;;-1.09;100.00
11448;BME280;43755;49.736;8.734;2023-01-27T06:24:12;98211.06;;;-0.80;100.00
11448;BME280;43755;49.736;8.734;2023-01-27T06:26:16;98217.00;;;-1.03;100.00
11448;BME280;43755;49.736;8.734;2023-01-27T06:28:18;98220.34;;;-1.17;100.00
11448;BME280;43755;49.736;8.734;2023-01-27T06:30:20;98219.47;;;-1.24;100.00
11448;BME280;43755;49.736;8.734;2023-01-27T06:32:23;98214.25;;;-1.23;100.00
11448;BME280;43755;49.736;8.734;2023-01-27T06:34:24;98227.25;;;-1.23;100.00
11448;BME280;43755;49.736;8.734;2023-01-27T06:36:26;98229.03;;;-1.18;100.00
11448;BME280;43755;49.736;8.734;2023-01-27T06:38:27;98229.84;;;-1.26;100.00
11448;BME280;43755;49.736;8.734;2023-01-27T06:40:30;98228.16;;;-1.17;100.00
11448;BME280;43755;49.736;8.734;2023-01-27T06:42:32;98233.34;;;-1.16;100.00
11448;BME280;43755;49.736;8.734;2023-01-27T06:44:33;98238.66;;;-1.02;100.00
11448;BME280;43755;49.736;8.734;2023-01-27T06:46:34;98243.75;;;-1.14;100.00
11448;BME280;43755;49.736;8.734;2023-01-27T06:48:37;98250.66;;;-1.19;100.00
11448;BME280;43755;49.736;8.734;2023-01-27T06:50:38;98256.66;;;-1.22;100.00
11448;BME280;43755;49.736;8.734;2023-01-27T06:52:40;98259.34;;;-1.13;100.00
11448;BME280;43755;49.736;8.734;2023-01-27T06:54:41;98248.09;;;-1.10;100.00
11448;BME280;43755;49.736;8.734;2023-01-27T06:56:43;98250.69;;;-1.13;100.00
11448;BME280;43755;49.736;8.734;2023-01-27T06:58:44;98253.22;;;-1.21;100.00
11448;BME280;43755;49.736;8.734;2023-01-27T07:00:45;98252.38;;;-1.17;100.00
11448;BME280;43755;49.736;8.734;2023-01-27T07:02:47;98257.56;;;-1.20;100.00
11448;BME280;43755;49.736;8.734;2023-01-27T07:04:50;98259.22;;;-1.28;100.00
11448;BME280;43755;49.736;8.734;2023-01-27T07:06:51;98268.69;;;-1.33;100.00
11448;BME280;43755;49.736;8.734;2023-01-27T07:08:52;98267.00;;;-1.31;100.00
11448;BME280;43755;49.736;8.734;2023-01-27T07:10:54;98273.94;;;-1.30;100.00
11448;BME280;43755;49.736;8.734;2023-01-27T07:13:02;98268.75;;;-1.30;100.00
11448;BME280;43755;49.736;8.734;2023-01-27T07:15:06;98270.44;;;-1.29;100.00
11448;BME280;43755;49.736;8.734;2023-01-27T07:17:07;98278.25;;;-1.28;100.00
11448;BME280;43755;49.736;8.734;2023-01-27T07:19:09;98267.09;;;-1.19;100.00
11448;BME280;43755;49.736;8.734;2023-01-27T07:21:13;98275.81;;;-1.12;100.00
11448;BME280;43755;49.736;8.734;2023-01-27T07:23:14;98278.34;;;-1.15;100.00
11448;BME280;43755;49.736;8.734;2023-01-27T07:25:15;98284.41;;;-1.16;100.00
11448;BME280;43755;49.736;8.734;2023-01-27T07:27:17;98288.84;;;-1.06;100.00
11448;BME280;43755;49.736;8.734;2023-01-27T07:29:18;98289.75;;;-0.98;100.00
11448;BME280;43755;49.736;8.734;2023-01-27T07:31:20;98286.22;;;-1.05;100.00
11448;BME280;43755;49.736;8.734;2023-01-27T07:33:21;98276.75;;;-0.98;100.00
11448;BME280;43755;49.736;8.734;2023-01-27T07:35:22;98287.22;;;-0.89;100.00
11448;BME280;43755;49.736;8.734;2023-01-27T07:37:25;98289.78;;;-0.95;100.00
11448;BME280;43755;49.736;8.734;2023-01-27T07:39:27;98289.63;;;-1.15;100.00
11448;BME280;43755;49.736;8.734;2023-01-27T07:41:28;98293.94;;;-1.15;100.00
11448;BME280;43755;49.736;8.734;2023-01-27T07:43:30;98296.56;;;-1.14;100.00
11448;BME280;43755;49.736;8.734;2023-01-27T07:45:31;98299.19;;;-1.09;100.00
11448;BME280;43755;49.736;8.734;2023-01-27T07:47:33;98303.50;;;-1.08;100.00
11448;BME280;43755;49.736;8.734;2023-01-27T07:49:34;98304.34;;;-1.11;100.00
11448;BME280;43755;49.736;8.734;2023-01-27T07:51:36;98302.63;;;-1.10;100.00
11448;BME280;43755;49.736;8.734;2023-01-27T07:53:38;98307.00;;;-1.06;100.00
11448;BME280;43755;49.736;8.734;2023-01-27T07:55:40;98303.66;;;-0.87;100.00
11448;BME280;43755;49.736;8.734;2023-01-27T07:57:41;98307.13;;;-0.90;100.00
11448;BME280;43755;49.736;8.734;2023-01-27T07:59:43;98313.19;;;-0.89;100.00
11448;BME280;43755;49.736;8.734;2023-01-27T08:01:44;98308.06;;;-0.75;100.00
11448;BME280;43755;49.736;8.734;2023-01-27T08:03:45;98313.25;;;-0.80;100.00
11448;BME280;43755;49.736;8.734;2023-01-27T08:05:47;98309.91;;;-0.65;100.00
11448;BME280;43755;49.736;8.734;2023-01-27T08:07:49;98309.09;;;-0.52;100.00
11448;BME280;43755;49.736;8.734;2023-01-27T08:09:52;98307.38;;;-0.53;100.00
11448;BME280;43755;49.736;8.734;2023-01-27T08:11:56;98314.25;;;-0.57;100.00
11448;BME280;43755;49.736;8.734;2023-01-27T08:13:58;98316.94;;;-0.48;100.00
11448;BME280;43755;49.736;8.734;2023-01-27T08:16:00;98312.59;;;-0.41;100.00
11448;BME280;43755;49.736;8.734;2023-01-27T08:18:02;98320.44;;;-0.38;100.00
11448;BME280;43755;49.736;8.734;2023-01-27T08:20:04;98313.47;;;-0.41;100.00
11448;BME280;43755;49.736;8.734;2023-01-27T08:22:06;98307.47;;;-0.32;100.00
11448;BME280;43755;49.736;8.734;2023-01-27T08:24:07;98318.69;;;-0.41;100.00
11448;BME280;43755;49.736;8.734;2023-01-27T08:26:10;98322.13;;;-0.48;100.00
11448;BME280;43755;49.736;8.734;2023-01-27T08:28:12;98320.47;;;-0.32;100.00
11448;BME280;43755;49.736;8.734;2023-01-27T08:30:14;98316.91;;;-0.49;100.00
11448;BME280;43755;49.736;8.734;2023-01-27T08:32:15;98318.59;;;-0.53;100.00
11448;BME280;43755;49.736;8.734;2023-01-27T08:34:17;98322.88;;;-0.62;100.00
11448;BME280;43755;49.736;8.734;2023-01-27T08:36:20;98325.50;;;-0.62;100.00
11448;BME280;43755;49.736;8.734;2023-01-27T08:38:21;98331.59;;;-0.56;100.00
11448;BME280;43755;49.736;8.734;2023-01-27T08:40:23;98327.31;;;-0.49;100.00
11448;BME280;43755;49.736;8.734;2023-01-27T08:42:25;98337.75;;;-0.42;100.00
11448;BME280;43755;49.736;8.734;2023-01-27T08:44:27;98340.31;;;-0.45;100.00
11448;BME280;43755;49.736;8.734;2023-01-27T08:46:28;98338.63;;;-0.43;100.00
11448;BME280;43755;49.736;8.734;2023-01-27T08:48:30;98349.06;;;-0.32;100.00
11448;BME280;43755;49.736;8.734;2023-01-27T08:50:32;98349.97;;;-0.25;100.00
11448;BME280;43755;49.736;8.734;2023-01-27T08:52:33;98334.41;;;-0.16;100.00
11448;BME280;43755;49.736;8.734;2023-01-27T08:54:34;98340.47;;;-0.17;100.00
11448;BME280;43755;49.736;8.734;2023-01-27T08:56:36;98337.03;;;-0.15;100.00
11448;BME280;43755;49.736;8.734;2023-01-27T08:58:39;98350.00;;;-0.21;100.00
11448;BME280;43755;49.736;8.734;2023-01-27T09:00:41;98349.16;;;-0.18;100.00
11448;BME280;43755;49.736;8.734;2023-01-27T09:02:42;98349.97;;;-0.22;100.00
11448;BME280;43755;49.736;8.734;2023-01-27T09:04:44;98348.25;;;-0.20;100.00
11448;BME280;43755;49.736;8.734;2023-01-27T09:06:45;98357.78;;;-0.24;100.00
11448;BME280;43755;49.736;8.734;2023-01-27T09:08:48;98349.09;;;-0.27;100.00
11448;BME280;43755;49.736;8.734;2023-01-27T09:11:09;98352.63;;;-0.15;100.00
11448;BME280;43755;49.736;8.734;2023-01-27T09:13:10;98349.94;;;-0.28;100.00
11448;BME280;43755;49.736;8.734;2023-01-27T09:15:14;98361.19;;;-0.34;100.00
11448;BME280;43755;49.736;8.734;2023-01-27T09:17:15;98365.53;;;-0.36;100.00
11448;BME280;43755;49.736;8.734;2023-01-27T09:19:18;98362.88;;;-0.41;100.00
11448;BME280;43755;49.736;8.734;2023-01-27T09:21:20;98362.09;;;-0.23;100.00
11448;BME280;43755;49.736;8.734;2023-01-27T09:23:21;98370.78;;;-0.21;100.00
11448;BME280;43755;49.736;8.734;2023-01-27T09:25:23;98374.22;;;-0.28;100.00
11448;BME280;43755;49.736;8.734;2023-01-27T09:27:24;98369.84;;;-0.36;100.00
11448;BME280;43755;49.736;8.734;2023-01-27T09:29:26;98366.44;;;-0.23;100.00
11448;BME280;43755;49.736;8.734;2023-01-27T09:31:29;98370.00;;;-0.05;100.00
11448;BME280;43755;49.736;8.734;2023-01-27T09:33:31;98370.91;;;-0.01;100.00
11448;BME280;43755;49.736;8.734;2023-01-27T09:35:36;98379.53;;;-0.08;100.00
11448;BME280;43755;49.736;8.734;2023-01-27T09:37:42;98379.47;;;-0.17;100.00
11448;BME280;43755;49.736;8.734;2023-01-27T09:39:47;98379.53;;;-0.08;100.00
11448;BME280;43755;49.736;8.734;2023-01-27T09:42:01;98376.13;;;-0.01;100.00
11448;BME280;43755;49.736;8.734;2023-01-27T09:44:28;98386.53;;;0.05;100.00
11448;BME280;43755;49.736;8.734;2023-01-27T09:46:54;98377.88;;;0.12;100.00
11448;BME280;43755;49.736;8.734;2023-01-27T09:49:31;98383.06;;;0.00;100.00
11448;BME280;43755;49.736;8.734;2023-01-27T09:51:45;98378.69;;;0.00;100.00
11448;BME280;43755;49.736;8.734;2023-01-27T09:54:10;98385.59;;;-0.09;100.00
11448;BME280;43755;49.736;8.734;2023-01-27T09:56:27;98382.06;;;-0.20;100.00
11448;BME280;43755;49.736;8.734;2023-01-27T09:58:44;98383.00;;;-0.12;100.00
11448;BME280;43755;49.736;8.734;2023-01-27T10:00:55;98384.69;;;-0.14;100.00
11448;BME280;43755;49.736;8.734;2023-01-27T10:03:19;98377.75;;;-0.20;100.00
11448;BME280;43755;49.736;8.734;2023-01-27T10:05:31;98383.03;;;-0.03;100.00
11448;BME280;43755;49.736;8.734;2023-01-27T10:07:59;98386.47;;;-0.06;100.00
11448;BME280;43755;49.736;8.734;2023-01-27T10:10:28;98382.09;;;-0.14;100.00
11448;BME280;43755;49.736;8.734;2023-01-27T10:12:42;98390.78;;;-0.09;100.00
11448;BME280;43755;49.736;8.734;2023-01-27T10:14:53;98383.94;;;0.07;100.00
11448;BME280;43755;49.736;8.734;2023-01-27T10:17:11;98387.41;;;0.09;100.00
11448;BME280;43755;49.736;8.734;2023-01-27T10:19:26;98378.78;;;0.17;100.00
11448;BME280;43755;49.736;8.734;2023-01-27T10:21:38;98374.47;;;0.21;100.00
11448;BME280;43755;49.736;8.734;2023-01-27T10:23:51;98369.25;;;0.21;100.00
11448;BME280;43755;49.736;8.734;2023-01-27T10:26:02;98367.50;;;0.14;100.00
11448;BME280;43755;49.736;8.734;2023-01-27T10:28:10;98363.22;;;0.23;100.00
11448;BME280;43755;49.736;8.734;2023-01-27T10:30:18;98370.19;;;0.35;100.00
11448;BME280;43755;49.736;8.734;2023-01-27T10:32:24;98371.09;;;0.46;100.00
11448;BME280;43755;49.736;8.734;2023-01-27T10:34:32;98371.06;;;0.48;100.00
11448;BME280;43755;49.736;8.734;2023-01-27T10:36:42;98362.38;;;0.36;100.00
11448;BME280;43755;49.736;8.734;2023-01-27T10:38:50;98360.66;;;0.38;100.00
11448;BME280;43755;49.736;8.734;2023-01-27T10:40:59;98361.53;;;0.44;100.00
11448;BME280;43755;49.736;8.734;2023-01-27T10:43:09;98367.59;;;0.38;100.00
11448;BME280;43755;49.736;8.734;2023-01-27T10:45:23;98358.91;;;0.44;100.00
11448;BME280;43755;49.736;8.734;2023-01-27T10:47:36;98352.88;;;0.55;100.00
11448;BME280;43755;49.736;8.734;2023-01-27T10:49:43;98358.94;;;0.47;100.00
11448;BME280;43755;49.736;8.734;2023-01-27T10:51:50;98369.38;;;0.56;100.00
11448;BME280;43755;49.736;8.734;2023-01-27T10:53:55;98352.03;;;0.67;100.00